sensor_id;sensor_type;location;lat;lon;timestamp;P1;durP1;ratioP1;P2;durP2;ratioP2
61553;SDS011;47425;51.976;5.326;2022-07-19T08:02:42;7.85;;;3.63;;
61553;SDS011;47425;51.976;5.326;2022-07-19T08:05:09;8.13;;;3.20;;
61553;SDS011;47425;51.976;5.326;2022-07-19T08:07:35;7.78;;;3.92;;
61553;SDS011;47425;51.976;5.326;2022-07-19T08:10:01;8.15;;;3.63;;
61553;SDS011;47425;51.976;5.326;2022-07-19T08:12:32;4.60;;;3.50;;
61553;SDS011;47425;51.976;5.326;2022-07-19T08:14:58;7.18;;;3.28;;
61553;SDS011;47425;51.976;5.326;2022-07-19T08:17:23;7.22;;;3.78;;
61553;SDS011;47425;51.976;5.326;2022-07-19T08:19:50;9.48;;;3.42;;
61553;SDS011;47425;51.976;5.326;2022-07-19T08:22:16;6.57;;;3.30;;
61553;SDS011;47425;51.976;5.326;2022-07-19T08:27:09;6.85;;;3.13;;
61553;SDS011;47425;51.976;5.326;2022-07-19T08:29:35;7.07;;;3.53;;
61553;SDS011;47425;51.976;5.326;2022-07-19T08:32:01;7.22;;;3.15;;
61553;SDS011;47425;51.976;5.326;2022-07-19T08:34:27;7.57;;;3.42;;
61553;SDS011;47425;51.976;5.326;2022-07-19T08:36:53;7.32;;;3.70;;
61553;SDS011;47425;51.976;5.326;2022-07-19T08:39:19;5.35;;;3.40;;
61553;SDS011;47425;51.976;5.326;2022-07-19T08:41:45;9.48;;;3.45;;
61553;SDS011;47425;51.976;5.326;2022-07-19T08:44:10;7.32;;;3.17;;
61553;SDS011;47425;51.976;5.326;2022-07-19T08:46:42;9.05;;;3.20;;
61553;SDS011;47425;51.976;5.326;2022-07-19T08:49:09;8.18;;;3.05;;
61553;SDS011;47425;51.976;5.326;2022-07-19T08:51:35;6.90;;;3.22;;
61553;SDS011;47425;51.976;5.326;2022-07-19T08:54:01;6.47;;;3.50;;
61553;SDS011;47425;51.976;5.326;2022-07-19T08:56:28;8.23;;;3.67;;
61553;SDS011;47425;51.976;5.326;2022-07-19T08:59:14;8.57;;;3.15;;
61553;SDS011;47425;51.976;5.326;2022-07-19T09:01:39;8.30;;;3.30;;
61553;SDS011;47425;51.976;5.326;2022-07-19T09:04:10;6.55;;;3.45;;
61553;SDS011;47425;51.976;5.326;2022-07-19T09:06:45;9.13;;;3.20;;
61553;SDS011;47425;51.976;5.326;2022-07-19T09:09:17;7.22;;;3.42;;
61553;SDS011;47425;51.976;5.326;2022-07-19T09:11:45;5.53;;;3.08;;
61553;SDS011;47425;51.976;5.326;2022-07-19T09:14:18;9.65;;;3.70;;
61553;SDS011;47425;51.976;5.326;2022-07-19T09:19:16;8.13;;;3.55;;
61553;SDS011;47425;51.976;5.326;2022-07-19T09:21:54;8.27;;;3.03;;
61553;SDS011;47425;51.976;5.326;2022-07-19T09:24:23;6.43;;;3.20;;
61553;SDS011;47425;51.976;5.326;2022-07-19T09:26:56;8.13;;;2.90;;
61553;SDS011;47425;51.976;5.326;2022-07-19T09:29:46;10.77;;;3.50;;
61553;SDS011;47425;51.976;5.326;2022-07-19T09:32:16;9.82;;;3.28;;
61553;SDS011;47425;51.976;5.326;2022-07-19T09:37:24;6.80;;;2.80;;
61553;SDS011;47425;51.976;5.326;2022-07-19T09:39:58;6.95;;;3.20;;
61553;SDS011;47425;51.976;5.326;2022-07-19T09:42:49;7.40;;;3.17;;
61553;SDS011;47425;51.976;5.326;2022-07-19T09:45:19;10.48;;;3.17;;
61553;SDS011;47425;51.976;5.326;2022-07-19T09:47:46;8.45;;;3.30;;
61553;SDS011;47425;51.976;5.326;2022-07-19T09:50:14;7.30;;;2.80;;
61553;SDS011;47425;51.976;5.326;2022-07-19T09:52:43;4.20;;;2.65;;
61553;SDS011;47425;51.976;5.326;2022-07-19T09:55:11;6.03;;;2.42;;
61553;SDS011;47425;51.976;5.326;2022-07-19T09:57:44;4.63;;;2.70;;
61553;SDS011;47425;51.976;5.326;2022-07-19T10:00:13;4.13;;;2.78;;
61553;SDS011;47425;51.976;5.326;2022-07-19T10:02:45;5.22;;;2.83;;
61553;SDS011;47425;51.976;5.326;2022-07-19T10:05:24;6.25;;;2.80;;
61553;SDS011;47425;51.976;5.326;2022-07-19T10:07:51;7.25;;;2.63;;
61553;SDS011;47425;51.976;5.326;2022-07-19T10:10:18;4.00;;;2.50;;
61553;SDS011;47425;51.976;5.326;2022-07-19T10:12:47;7.32;;;2.70;;
61553;SDS011;47425;51.976;5.326;2022-07-19T10:15:14;4.72;;;2.90;;
61553;SDS011;47425;51.976;5.326;2022-07-19T10:20:37;6.97;;;2.53;;
61553;SDS011;47425;51.976;5.326;2022-07-19T10:23:08;9.40;;;2.83;;
61553;SDS011;47425;51.976;5.326;2022-07-19T10:25:41;7.47;;;2.90;;
61553;SDS011;47425;51.976;5.326;2022-07-19T10:28:25;6.57;;;2.65;;
61553;SDS011;47425;51.976;5.326;2022-07-19T10:31:02;10.40;;;2.60;;
61553;SDS011;47425;51.976;5.326;2022-07-19T10:33:46;7.47;;;2.53;;
61553;SDS011;47425;51.976;5.326;2022-07-19T10:39:20;6.65;;;2.72;;
61553;SDS011;47425;51.976;5.326;2022-07-19T10:50:03;4.68;;;2.42;;
61553;SDS011;47425;51.976;5.326;2022-07-19T10:52:34;5.30;;;2.60;;
61553;SDS011;47425;51.976;5.326;2022-07-19T10:57:43;4.07;;;2.33;;
61553;SDS011;47425;51.976;5.326;2022-07-19T11:00:29;3.83;;;2.30;;
61553;SDS011;47425;51.976;5.326;2022-07-19T11:05:49;5.50;;;2.50;;
61553;SDS011;47425;51.976;5.326;2022-07-19T11:08:39;8.60;;;2.50;;
61553;SDS011;47425;51.976;5.326;2022-07-19T11:11:08;4.18;;;2.10;;
61553;SDS011;47425;51.976;5.326;2022-07-19T11:13:40;7.75;;;2.70;;
61553;SDS011;47425;51.976;5.326;2022-07-19T11:16:08;8.13;;;2.65;;
61553;SDS011;47425;51.976;5.326;2022-07-19T11:18:34;7.57;;;2.33;;
61553;SDS011;47425;51.976;5.326;2022-07-19T11:21:00;6.10;;;2.15;;
61553;SDS011;47425;51.976;5.326;2022-07-19T11:23:29;6.22;;;2.55;;
61553;SDS011;47425;51.976;5.326;2022-07-19T11:26:07;5.93;;;2.42;;
61553;SDS011;47425;51.976;5.326;2022-07-19T11:28:37;4.50;;;2.47;;
61553;SDS011;47425;51.976;5.326;2022-07-19T11:31:37;6.10;;;2.40;;
61553;SDS011;47425;51.976;5.326;2022-07-19T11:33:57;7.18;;;2.50;;
61553;SDS011;47425;51.976;5.326;2022-07-19T11:36:23;4.32;;;2.40;;
61553;SDS011;47425;51.976;5.326;2022-07-19T11:38:52;3.05;;;2.28;;
61553;SDS011;47425;51.976;5.326;2022-07-19T11:41:23;4.93;;;2.47;;
61553;SDS011;47425;51.976;5.326;2022-07-19T11:44:00;4.07;;;2.33;;
61553;SDS011;47425;51.976;5.326;2022-07-19T11:46:30;4.60;;;2.22;;
61553;SDS011;47425;51.976;5.326;2022-07-19T11:49:01;4.55;;;2.28;;
61553;SDS011;47425;51.976;5.326;2022-07-19T11:51:27;3.90;;;2.50;;
61553;SDS011;47425;51.976;5.326;2022-07-19T11:53:55;4.80;;;2.47;;
61553;SDS011;47425;51.976;5.326;2022-07-19T11:56:23;4.50;;;2.15;;
61553;SDS011;47425;51.976;5.326;2022-07-19T11:58:50;4.95;;;2.47;;
61553;SDS011;47425;51.976;5.326;2022-07-19T12:01:23;7.85;;;2.85;;
61553;SDS011;47425;51.976;5.326;2022-07-19T12:03:58;4.38;;;2.38;;
61553;SDS011;47425;51.976;5.326;2022-07-19T12:06:38;6.72;;;2.50;;
61553;SDS011;47425;51.976;5.326;2022-07-19T12:09:13;7.40;;;2.55;;
61553;SDS011;47425;51.976;5.326;2022-07-19T12:11:46;3.35;;;1.95;;
61553;SDS011;47425;51.976;5.326;2022-07-19T12:14:17;3.72;;;2.30;;
61553;SDS011;47425;51.976;5.326;2022-07-19T12:16:44;4.82;;;2.30;;
61553;SDS011;47425;51.976;5.326;2022-07-19T12:19:10;4.10;;;2.08;;
61553;SDS011;47425;51.976;5.326;2022-07-19T12:21:44;3.55;;;2.45;;
61553;SDS011;47425;51.976;5.326;2022-07-19T12:24:13;5.00;;;1.98;;
61553;SDS011;47425;51.976;5.326;2022-07-19T12:32:03;5.85;;;2.10;;
61553;SDS011;47425;51.976;5.326;2022-07-19T12:34:50;5.70;;;2.22;;
61553;SDS011;47425;51.976;5.326;2022-07-19T12:37:23;4.40;;;1.90;;
61553;SDS011;47425;51.976;5.326;2022-07-19T12:39:58;9.95;;;2.25;;
61553;SDS011;47425;51.976;5.326;2022-07-19T12:42:34;4.22;;;2.03;;
61553;SDS011;47425;51.976;5.326;2022-07-19T12:47:43;4.47;;;2.13;;
61553;SDS011;47425;51.976;5.326;2022-07-19T12:50:09;3.75;;;1.83;;
61553;SDS011;47425;51.976;5.326;2022-07-19T12:52:47;5.72;;;2.05;;
61553;SDS011;47425;51.976;5.326;2022-07-19T12:55:13;4.30;;;2.20;;
61553;SDS011;47425;51.976;5.326;2022-07-19T12:57:38;4.15;;;1.88;;
61553;SDS011;47425;51.976;5.326;2022-07-19T13:00:05;2.60;;;1.90;;
61553;SDS011;47425;51.976;5.326;2022-07-19T13:02:31;2.53;;;1.80;;
61553;SDS011;47425;51.976;5.326;2022-07-19T13:04:56;2.75;;;1.90;;
61553;SDS011;47425;51.976;5.326;2022-07-19T13:07:22;5.10;;;2.22;;
61553;SDS011;47425;51.976;5.326;2022-07-19T13:09:48;4.07;;;1.65;;
61553;SDS011;47425;51.976;5.326;2022-07-19T13:12:14;3.35;;;1.88;;
61553;SDS011;47425;51.976;5.326;2022-07-19T13:14:39;2.97;;;1.65;;
61553;SDS011;47425;51.976;5.326;2022-07-19T13:17:06;4.07;;;1.98;;
61553;SDS011;47425;51.976;5.326;2022-07-19T13:19:36;3.92;;;2.00;;
61553;SDS011;47425;51.976;5.326;2022-07-19T13:22:02;2.40;;;1.80;;
61553;SDS011;47425;51.976;5.326;2022-07-19T13:24:28;3.17;;;1.80;;
61553;SDS011;47425;51.976;5.326;2022-07-19T13:26:54;3.67;;;2.00;;
61553;SDS011;47425;51.976;5.326;2022-07-19T13:29:20;2.33;;;1.92;;
61553;SDS011;47425;51.976;5.326;2022-07-19T13:31:45;5.85;;;1.73;;
61553;SDS011;47425;51.976;5.326;2022-07-19T13:34:12;2.80;;;1.83;;
61553;SDS011;47425;51.976;5.326;2022-07-19T13:36:38;2.90;;;1.85;;
61553;SDS011;47425;51.976;5.326;2022-07-19T13:39:03;3.60;;;1.85;;
61553;SDS011;47425;51.976;5.326;2022-07-19T13:41:29;2.67;;;1.77;;
61553;SDS011;47425;51.976;5.326;2022-07-19T13:43:55;3.67;;;2.17;;
61553;SDS011;47425;51.976;5.326;2022-07-19T13:46:21;2.80;;;2.03;;
61553;SDS011;47425;51.976;5.326;2022-07-19T13:48:47;2.75;;;1.48;;
61553;SDS011;47425;51.976;5.326;2022-07-19T13:51:12;3.38;;;1.85;;
61553;SDS011;47425;51.976;5.326;2022-07-19T13:53:39;4.20;;;1.60;;
61553;SDS011;47425;51.976;5.326;2022-07-19T13:56:05;4.90;;;1.65;;
61553;SDS011;47425;51.976;5.326;2022-07-19T13:58:31;3.25;;;2.00;;
61553;SDS011;47425;51.976;5.326;2022-07-19T14:00:58;3.45;;;1.70;;
61553;SDS011;47425;51.976;5.326;2022-07-19T14:03:24;5.82;;;1.77;;
61553;SDS011;47425;51.976;5.326;2022-07-19T14:05:49;3.50;;;1.90;;
61553;SDS011;47425;51.976;5.326;2022-07-19T14:08:15;3.88;;;2.08;;
61553;SDS011;47425;51.976;5.326;2022-07-19T14:10:42;4.28;;;1.73;;
61553;SDS011;47425;51.976;5.326;2022-07-19T14:13:08;4.30;;;2.10;;
61553;SDS011;47425;51.976;5.326;2022-07-19T14:15:34;3.83;;;2.00;;
61553;SDS011;47425;51.976;5.326;2022-07-19T14:18:01;2.63;;;1.85;;
61553;SDS011;47425;51.976;5.326;2022-07-19T14:20:27;4.70;;;1.90;;
61553;SDS011;47425;51.976;5.326;2022-07-19T14:22:53;2.85;;;2.08;;
61553;SDS011;47425;51.976;5.326;2022-07-19T14:25:18;2.60;;;1.90;;
61553;SDS011;47425;51.976;5.326;2022-07-19T14:27:45;2.63;;;1.98;;
61553;SDS011;47425;51.976;5.326;2022-07-19T14:30:11;2.88;;;1.67;;
61553;SDS011;47425;51.976;5.326;2022-07-19T14:32:37;1.98;;;1.73;;
61553;SDS011;47425;51.976;5.326;2022-07-19T14:35:22;2.55;;;1.77;;
61553;SDS011;47425;51.976;5.326;2022-07-19T14:37:49;1.67;;;1.52;;
61553;SDS011;47425;51.976;5.326;2022-07-19T14:40:15;2.00;;;1.80;;
61553;SDS011;47425;51.976;5.326;2022-07-19T14:42:41;2.00;;;1.80;;
61553;SDS011;47425;51.976;5.326;2022-07-19T14:45:08;4.70;;;2.15;;
61553;SDS011;47425;51.976;5.326;2022-07-19T14:47:34;3.67;;;2.10;;
61553;SDS011;47425;51.976;5.326;2022-07-19T14:50:01;4.60;;;2.13;;
61553;SDS011;47425;51.976;5.326;2022-07-19T14:52:28;5.30;;;2.42;;
61553;SDS011;47425;51.976;5.326;2022-07-19T14:54:55;3.83;;;1.97;;
61553;SDS011;47425;51.976;5.326;2022-07-19T14:57:21;4.05;;;2.03;;
61553;SDS011;47425;51.976;5.326;2022-07-19T14:59:47;3.60;;;2.30;;
61553;SDS011;47425;51.976;5.326;2022-07-19T15:02:13;5.65;;;2.17;;
61553;SDS011;47425;51.976;5.326;2022-07-19T15:04:40;7.13;;;2.33;;
61553;SDS011;47425;51.976;5.326;2022-07-19T15:07:05;5.65;;;2.13;;
61553;SDS011;47425;51.976;5.326;2022-07-19T15:09:30;8.43;;;2.95;;
61553;SDS011;47425;51.976;5.326;2022-07-19T15:11:57;5.03;;;2.40;;
61553;SDS011;47425;51.976;5.326;2022-07-19T15:14:26;3.95;;;2.83;;
61553;SDS011;47425;51.976;5.326;2022-07-19T15:16:54;5.80;;;2.47;;
61553;SDS011;47425;51.976;5.326;2022-07-19T15:19:23;7.88;;;2.67;;
61553;SDS011;47425;51.976;5.326;2022-07-19T15:21:51;4.80;;;2.70;;
61553;SDS011;47425;51.976;5.326;2022-07-19T15:24:17;5.35;;;2.65;;
61553;SDS011;47425;51.976;5.326;2022-07-19T15:26:43;7.93;;;2.83;;
61553;SDS011;47425;51.976;5.326;2022-07-19T15:29:09;3.25;;;2.55;;
61553;SDS011;47425;51.976;5.326;2022-07-19T15:31:36;7.68;;;2.85;;
61553;SDS011;47425;51.976;5.326;2022-07-19T15:34:02;6.65;;;2.58;;
61553;SDS011;47425;51.976;5.326;2022-07-19T15:36:28;7.22;;;2.88;;
61553;SDS011;47425;51.976;5.326;2022-07-19T15:38:55;4.13;;;2.15;;
61553;SDS011;47425;51.976;5.326;2022-07-19T15:41:20;4.10;;;2.30;;
61553;SDS011;47425;51.976;5.326;2022-07-19T15:43:45;3.92;;;2.45;;
61553;SDS011;47425;51.976;5.326;2022-07-19T15:46:11;2.90;;;2.10;;
61553;SDS011;47425;51.976;5.326;2022-07-19T15:48:38;7.30;;;2.55;;
61553;SDS011;47425;51.976;5.326;2022-07-19T15:51:08;4.43;;;2.30;;
61553;SDS011;47425;51.976;5.326;2022-07-19T15:53:35;12.38;;;2.80;;
61553;SDS011;47425;51.976;5.326;2022-07-19T15:58:28;3.45;;;2.28;;
61553;SDS011;47425;51.976;5.326;2022-07-19T16:00:53;6.03;;;2.40;;
61553;SDS011;47425;51.976;5.326;2022-07-19T16:03:19;6.53;;;2.22;;
61553;SDS011;47425;51.976;5.326;2022-07-19T16:05:46;4.75;;;2.17;;
61553;SDS011;47425;51.976;5.326;2022-07-19T16:08:11;4.47;;;2.42;;
61553;SDS011;47425;51.976;5.326;2022-07-19T16:10:38;4.35;;;2.13;;
61553;SDS011;47425;51.976;5.326;2022-07-19T16:13:05;6.93;;;2.30;;
61553;SDS011;47425;51.976;5.326;2022-07-19T16:15:32;4.68;;;2.20;;
61553;SDS011;47425;51.976;5.326;2022-07-19T16:17:58;8.05;;;2.42;;
61553;SDS011;47425;51.976;5.326;2022-07-19T16:20:24;9.55;;;2.65;;
61553;SDS011;47425;51.976;5.326;2022-07-19T16:23:09;7.40;;;2.72;;
61553;SDS011;47425;51.976;5.326;2022-07-19T16:25:36;7.82;;;2.67;;
61553;SDS011;47425;51.976;5.326;2022-07-19T16:28:01;8.13;;;2.80;;
61553;SDS011;47425;51.976;5.326;2022-07-19T16:30:27;5.53;;;2.50;;
61553;SDS011;47425;51.976;5.326;2022-07-19T16:32:54;5.75;;;2.40;;
61553;SDS011;47425;51.976;5.326;2022-07-19T16:35:19;8.65;;;2.58;;
61553;SDS011;47425;51.976;5.326;2022-07-19T16:37:45;4.93;;;2.35;;
61553;SDS011;47425;51.976;5.326;2022-07-19T16:40:11;8.30;;;2.08;;
61553;SDS011;47425;51.976;5.326;2022-07-19T16:42:38;3.65;;;2.50;;
61553;SDS011;47425;51.976;5.326;2022-07-19T16:45:04;5.05;;;2.00;;
61553;SDS011;47425;51.976;5.326;2022-07-19T16:47:30;5.82;;;2.20;;
61553;SDS011;47425;51.976;5.326;2022-07-19T16:49:57;6.53;;;2.57;;
61553;SDS011;47425;51.976;5.326;2022-07-19T16:52:23;5.18;;;2.00;;
61553;SDS011;47425;51.976;5.326;2022-07-19T16:54:48;8.75;;;2.35;;
61553;SDS011;47425;51.976;5.326;2022-07-19T16:57:14;8.40;;;2.28;;
61553;SDS011;47425;51.976;5.326;2022-07-19T16:59:40;3.90;;;2.30;;
61553;SDS011;47425;51.976;5.326;2022-07-19T17:02:06;7.20;;;2.15;;
61553;SDS011;47425;51.976;5.326;2022-07-19T17:04:31;5.15;;;2.40;;
61553;SDS011;47425;51.976;5.326;2022-07-19T17:06:57;4.82;;;2.13;;
61553;SDS011;47425;51.976;5.326;2022-07-19T17:09:23;6.93;;;2.70;;
61553;SDS011;47425;51.976;5.326;2022-07-19T17:11:49;7.38;;;2.10;;
61553;SDS011;47425;51.976;5.326;2022-07-19T17:14:14;5.07;;;2.28;;
61553;SDS011;47425;51.976;5.326;2022-07-19T17:16:41;4.97;;;2.10;;
61553;SDS011;47425;51.976;5.326;2022-07-19T17:19:08;4.78;;;2.20;;
61553;SDS011;47425;51.976;5.326;2022-07-19T17:21:34;5.60;;;2.25;;
61553;SDS011;47425;51.976;5.326;2022-07-19T17:23:59;4.63;;;2.30;;
61553;SDS011;47425;51.976;5.326;2022-07-19T17:26:26;3.63;;;2.00;;
61553;SDS011;47425;51.976;5.326;2022-07-19T17:28:51;5.70;;;2.20;;
61553;SDS011;47425;51.976;5.326;2022-07-19T17:31:18;9.15;;;2.35;;
61553;SDS011;47425;51.976;5.326;2022-07-19T17:33:43;4.63;;;2.42;;
61553;SDS011;47425;51.976;5.326;2022-07-19T17:36:10;6.65;;;2.47;;
61553;SDS011;47425;51.976;5.326;2022-07-19T17:38:35;4.55;;;2.17;;
61553;SDS011;47425;51.976;5.326;2022-07-19T17:41:02;11.02;;;2.08;;
61553;SDS011;47425;51.976;5.326;2022-07-19T17:43:28;4.97;;;2.42;;
61553;SDS011;47425;51.976;5.326;2022-07-19T17:45:54;4.22;;;2.20;;
61553;SDS011;47425;51.976;5.326;2022-07-19T17:48:40;4.70;;;2.05;;
61553;SDS011;47425;51.976;5.326;2022-07-19T17:51:07;5.22;;;2.08;;
61553;SDS011;47425;51.976;5.326;2022-07-19T17:53:32;5.20;;;2.40;;
61553;SDS011;47425;51.976;5.326;2022-07-19T17:55:58;5.93;;;2.20;;
61553;SDS011;47425;51.976;5.326;2022-07-19T17:58:25;7.87;;;2.40;;
61553;SDS011;47425;51.976;5.326;2022-07-19T18:00:50;5.85;;;2.15;;
61553;SDS011;47425;51.976;5.326;2022-07-19T18:03:15;3.67;;;2.20;;
61553;SDS011;47425;51.976;5.326;2022-07-19T18:05:42;4.80;;;2.28;;
61553;SDS011;47425;51.976;5.326;2022-07-19T18:08:09;3.90;;;2.28;;
61553;SDS011;47425;51.976;5.326;2022-07-19T18:10:34;4.63;;;2.28;;
61553;SDS011;47425;51.976;5.326;2022-07-19T18:13:00;2.80;;;2.17;;
61553;SDS011;47425;51.976;5.326;2022-07-19T18:15:27;6.93;;;2.30;;
61553;SDS011;47425;51.976;5.326;2022-07-19T18:17:53;8.23;;;2.40;;
61553;SDS011;47425;51.976;5.326;2022-07-19T18:20:19;5.40;;;2.35;;
61553;SDS011;47425;51.976;5.326;2022-07-19T18:22:45;4.85;;;2.30;;
61553;SDS011;47425;51.976;5.326;2022-07-19T18:25:12;5.95;;;2.08;;
61553;SDS011;47425;51.976;5.326;2022-07-19T18:27:38;6.43;;;2.55;;
61553;SDS011;47425;51.976;5.326;2022-07-19T18:30:04;2.78;;;2.13;;
61553;SDS011;47425;51.976;5.326;2022-07-19T18:32:30;3.72;;;2.15;;
61553;SDS011;47425;51.976;5.326;2022-07-19T18:34:57;3.45;;;2.00;;
61553;SDS011;47425;51.976;5.326;2022-07-19T18:37:25;2.85;;;2.00;;
61553;SDS011;47425;51.976;5.326;2022-07-19T18:39:51;2.75;;;2.00;;
61553;SDS011;47425;51.976;5.326;2022-07-19T18:42:16;6.25;;;2.00;;
61553;SDS011;47425;51.976;5.326;2022-07-19T18:45:02;3.00;;;1.90;;
61553;SDS011;47425;51.976;5.326;2022-07-19T18:47:28;5.55;;;2.00;;
61553;SDS011;47425;51.976;5.326;2022-07-19T18:49:53;4.32;;;1.92;;
61553;SDS011;47425;51.976;5.326;2022-07-19T18:52:22;3.63;;;2.00;;
61553;SDS011;47425;51.976;5.326;2022-07-19T18:54:47;2.83;;;2.10;;
61553;SDS011;47425;51.976;5.326;2022-07-19T18:57:13;3.67;;;2.10;;
61553;SDS011;47425;51.976;5.326;2022-07-19T18:59:38;3.20;;;2.10;;
61553;SDS011;47425;51.976;5.326;2022-07-19T19:02:06;2.92;;;2.10;;
61553;SDS011;47425;51.976;5.326;2022-07-19T19:04:32;2.80;;;2.00;;
61553;SDS011;47425;51.976;5.326;2022-07-19T19:06:58;3.40;;;1.70;;
61553;SDS011;47425;51.976;5.326;2022-07-19T19:09:24;2.85;;;2.00;;
61553;SDS011;47425;51.976;5.326;2022-07-19T19:11:51;2.80;;;2.00;;
61553;SDS011;47425;51.976;5.326;2022-07-19T19:14:16;3.58;;;2.10;;
61553;SDS011;47425;51.976;5.326;2022-07-19T19:16:42;3.22;;;1.85;;
61553;SDS011;47425;51.976;5.326;2022-07-19T19:19:08;2.65;;;2.10;;
61553;SDS011;47425;51.976;5.326;2022-07-19T19:21:34;2.75;;;2.00;;
61553;SDS011;47425;51.976;5.326;2022-07-19T19:24:02;3.63;;;2.20;;
61553;SDS011;47425;51.976;5.326;2022-07-19T19:26:28;3.17;;;1.80;;
61553;SDS011;47425;51.976;5.326;2022-07-19T19:28:54;2.47;;;1.85;;
61553;SDS011;47425;51.976;5.326;2022-07-19T19:31:20;2.50;;;1.80;;
61553;SDS011;47425;51.976;5.326;2022-07-19T19:33:46;2.17;;;1.60;;
61553;SDS011;47425;51.976;5.326;2022-07-19T19:36:12;4.25;;;2.10;;
61553;SDS011;47425;51.976;5.326;2022-07-19T19:38:38;2.72;;;1.98;;
61553;SDS011;47425;51.976;5.326;2022-07-19T19:41:05;2.00;;;1.70;;
61553;SDS011;47425;51.976;5.326;2022-07-19T19:43:31;4.40;;;1.90;;
61553;SDS011;47425;51.976;5.326;2022-07-19T19:45:58;5.25;;;2.20;;
61553;SDS011;47425;51.976;5.326;2022-07-19T19:48:23;2.00;;;1.80;;
61553;SDS011;47425;51.976;5.326;2022-07-19T19:50:49;2.58;;;1.60;;
61553;SDS011;47425;51.976;5.326;2022-07-19T19:53:14;2.78;;;1.70;;
61553;SDS011;47425;51.976;5.326;2022-07-19T19:55:40;2.17;;;1.80;;
61553;SDS011;47425;51.976;5.326;2022-07-19T19:58:06;3.45;;;2.08;;
61553;SDS011;47425;51.976;5.326;2022-07-19T20:00:32;3.50;;;2.05;;
61553;SDS011;47425;51.976;5.326;2022-07-19T20:02:59;3.33;;;1.80;;
61553;SDS011;47425;51.976;5.326;2022-07-19T20:05:25;3.25;;;2.17;;
61553;SDS011;47425;51.976;5.326;2022-07-19T20:07:51;3.28;;;1.75;;
61553;SDS011;47425;51.976;5.326;2022-07-19T20:10:16;2.55;;;1.80;;
61553;SDS011;47425;51.976;5.326;2022-07-19T20:12:43;2.80;;;1.70;;
61553;SDS011;47425;51.976;5.326;2022-07-19T20:15:09;1.77;;;1.60;;
61553;SDS011;47425;51.976;5.326;2022-07-19T20:17:37;4.97;;;1.75;;
61553;SDS011;47425;51.976;5.326;2022-07-19T20:20:04;2.00;;;1.58;;
61553;SDS011;47425;51.976;5.326;2022-07-19T20:22:30;2.45;;;1.80;;
61553;SDS011;47425;51.976;5.326;2022-07-19T20:24:55;3.22;;;1.90;;
61553;SDS011;47425;51.976;5.326;2022-07-19T20:27:21;2.72;;;1.67;;
61553;SDS011;47425;51.976;5.326;2022-07-19T20:29:48;3.33;;;1.90;;
61553;SDS011;47425;51.976;5.326;2022-07-19T20:32:13;3.83;;;1.80;;
61553;SDS011;47425;51.976;5.326;2022-07-19T20:34:39;2.10;;;1.60;;
61553;SDS011;47425;51.976;5.326;2022-07-19T20:37:05;3.75;;;1.90;;
61553;SDS011;47425;51.976;5.326;2022-07-19T20:39:30;2.03;;;1.65;;
61553;SDS011;47425;51.976;5.326;2022-07-19T20:41:56;2.30;;;2.03;;
61553;SDS011;47425;51.976;5.326;2022-07-19T20:44:21;2.42;;;1.80;;
61553;SDS011;47425;51.976;5.326;2022-07-19T20:47:08;2.72;;;1.80;;
61553;SDS011;47425;51.976;5.326;2022-07-19T20:49:34;4.90;;;1.98;;
61553;SDS011;47425;51.976;5.326;2022-07-19T20:52:00;3.22;;;2.10;;
61553;SDS011;47425;51.976;5.326;2022-07-19T20:54:25;4.97;;;2.40;;
61553;SDS011;47425;51.976;5.326;2022-07-19T20:56:52;5.30;;;2.05;;
61553;SDS011;47425;51.976;5.326;2022-07-19T20:59:17;5.28;;;2.40;;
61553;SDS011;47425;51.976;5.326;2022-07-19T21:01:42;5.57;;;1.85;;
61553;SDS011;47425;51.976;5.326;2022-07-19T21:04:08;5.13;;;2.10;;
61553;SDS011;47425;51.976;5.326;2022-07-19T21:06:34;3.53;;;2.13;;
61553;SDS011;47425;51.976;5.326;2022-07-19T21:08:59;4.22;;;1.90;;
61553;SDS011;47425;51.976;5.326;2022-07-19T21:11:25;5.47;;;2.30;;
61553;SDS011;47425;51.976;5.326;2022-07-19T21:13:51;6.07;;;2.25;;
61553;SDS011;47425;51.976;5.326;2022-07-19T21:16:17;4.72;;;2.15;;
61553;SDS011;47425;51.976;5.326;2022-07-19T21:18:42;3.38;;;2.25;;
61553;SDS011;47425;51.976;5.326;2022-07-19T21:21:07;4.10;;;2.10;;
61553;SDS011;47425;51.976;5.326;2022-07-19T21:23:34;4.43;;;2.00;;
61553;SDS011;47425;51.976;5.326;2022-07-19T21:25:59;3.33;;;1.92;;
61553;SDS011;47425;51.976;5.326;2022-07-19T21:28:25;2.95;;;1.80;;
61553;SDS011;47425;51.976;5.326;2022-07-19T21:30:51;2.72;;;1.80;;
61553;SDS011;47425;51.976;5.326;2022-07-19T21:33:17;3.55;;;1.90;;
61553;SDS011;47425;51.976;5.326;2022-07-19T21:35:42;3.30;;;1.77;;
61553;SDS011;47425;51.976;5.326;2022-07-19T21:38:08;5.72;;;2.00;;
61553;SDS011;47425;51.976;5.326;2022-07-19T21:40:34;4.50;;;2.50;;
61553;SDS011;47425;51.976;5.326;2022-07-19T21:43:00;4.47;;;2.28;;
61553;SDS011;47425;51.976;5.326;2022-07-19T21:45:25;3.25;;;1.80;;
61553;SDS011;47425;51.976;5.326;2022-07-19T21:47:52;4.55;;;2.08;;
61553;SDS011;47425;51.976;5.326;2022-07-19T21:50:18;7.15;;;2.10;;
61553;SDS011;47425;51.976;5.326;2022-07-19T21:52:44;4.13;;;2.20;;
61553;SDS011;47425;51.976;5.326;2022-07-19T21:55:09;4.68;;;2.35;;
61553;SDS011;47425;51.976;5.326;2022-07-19T21:57:36;4.45;;;2.00;;
61553;SDS011;47425;51.976;5.326;2022-07-19T22:00:08;3.08;;;2.17;;
61553;SDS011;47425;51.976;5.326;2022-07-19T22:02:40;5.05;;;2.13;;
61553;SDS011;47425;51.976;5.326;2022-07-19T22:05:06;3.13;;;1.90;;
61553;SDS011;47425;51.976;5.326;2022-07-19T22:07:51;3.63;;;2.30;;
61553;SDS011;47425;51.976;5.326;2022-07-19T22:10:17;2.35;;;1.95;;
61553;SDS011;47425;51.976;5.326;2022-07-19T22:12:42;4.22;;;2.20;;
61553;SDS011;47425;51.976;5.326;2022-07-19T22:15:08;4.43;;;2.10;;
61553;SDS011;47425;51.976;5.326;2022-07-19T22:17:35;5.38;;;2.05;;
61553;SDS011;47425;51.976;5.326;2022-07-19T22:20:00;2.92;;;1.90;;
61553;SDS011;47425;51.976;5.326;2022-07-19T22:22:25;4.25;;;1.92;;
61553;SDS011;47425;51.976;5.326;2022-07-19T22:24:52;3.33;;;2.20;;
61553;SDS011;47425;51.976;5.326;2022-07-19T22:27:17;3.78;;;2.10;;
61553;SDS011;47425;51.976;5.326;2022-07-19T22:29:43;3.42;;;1.95;;
